createdAt,value
2022-08-03T00:00:01.014Z,20.79
2022-08-03T00:01:00.466Z,20.73
2022-08-03T00:02:00.404Z,20.75
2022-08-03T00:03:00.586Z,20.70
2022-08-03T00:04:01.185Z,20.64
2022-08-03T00:05:00.337Z,20.61
2022-08-03T00:06:03.929Z,20.56
2022-08-03T00:07:00.334Z,20.52
2022-08-03T00:08:00.326Z,20.49
2022-08-03T00:09:00.303Z,20.53
2022-08-03T00:10:00.329Z,20.56
2022-08-03T00:11:00.326Z,20.55
2022-08-03T00:12:00.506Z,20.55
2022-08-03T00:13:00.400Z,20.61
2022-08-03T00:14:00.286Z,20.64
2022-08-03T00:15:00.637Z,20.65
2022-08-03T00:16:00.364Z,20.67
2022-08-03T00:17:00.265Z,20.67
2022-08-03T00:18:00.295Z,20.73
2022-08-03T00:19:00.763Z,20.73
2022-08-03T00:20:00.243Z,20.71
2022-08-03T00:21:00.368Z,20.68
2022-08-03T00:22:00.234Z,20.71
2022-08-03T00:23:00.245Z,20.75
2022-08-03T00:24:00.206Z,20.80
2022-08-03T00:25:00.224Z,20.85
2022-08-03T00:26:00.185Z,20.83
2022-08-03T00:27:00.191Z,20.82
2022-08-03T00:28:02.143Z,20.80
2022-08-03T00:29:00.334Z,20.88
2022-08-03T00:30:00.641Z,20.86
2022-08-03T00:31:00.183Z,20.85
2022-08-03T00:32:00.734Z,20.85
2022-08-03T00:33:00.516Z,20.88
2022-08-03T00:34:03.345Z,20.89
2022-08-03T00:35:00.410Z,20.85
2022-08-03T00:36:00.161Z,20.82
2022-08-03T00:37:00.610Z,20.77
2022-08-03T00:38:00.553Z,20.70
2022-08-03T00:39:00.152Z,20.67
2022-08-03T00:40:00.900Z,20.70
2022-08-03T00:41:00.354Z,20.71
2022-08-03T00:42:00.102Z,20.63
2022-08-03T00:43:00.107Z,20.60
2022-08-03T00:44:00.076Z,20.58
2022-08-03T00:45:00.502Z,20.63
2022-08-03T00:46:00.081Z,20.56
2022-08-03T00:47:00.059Z,20.49
2022-08-03T00:48:00.071Z,20.49
2022-08-03T00:49:00.073Z,20.55
2022-08-03T00:50:00.793Z,20.52
2022-08-03T00:51:00.774Z,20.53
2022-08-03T00:52:00.011Z,20.48
2022-08-03T00:53:00.013Z,20.61
2022-08-03T00:53:59.993Z,20.64
2022-08-03T00:55:00.552Z,20.65
2022-08-03T00:56:00.100Z,20.63
2022-08-03T00:57:00.571Z,20.67
2022-08-03T00:57:59.983Z,20.65
2022-08-03T00:59:00.361Z,20.61
2022-08-03T01:00:00.903Z,20.61
2022-08-03T01:01:00.161Z,20.61
2022-08-03T01:02:00.059Z,20.68
2022-08-03T01:02:59.942Z,20.71
2022-08-03T01:03:59.929Z,20.71
2022-08-03T01:04:59.920Z,20.77
2022-08-03T01:06:00.085Z,20.75
2022-08-03T01:07:00.115Z,20.70
2022-08-03T01:07:59.926Z,20.63
2022-08-03T01:08:59.888Z,20.61
2022-08-03T01:09:59.932Z,20.56
2022-08-03T01:10:59.901Z,20.58
2022-08-03T01:12:01.740Z,20.64
2022-08-03T01:12:59.880Z,20.67
2022-08-03T01:14:04.175Z,20.73
2022-08-03T01:14:59.852Z,20.73
2022-08-03T01:16:00.340Z,20.80
2022-08-03T01:16:59.920Z,20.80
2022-08-03T01:17:59.850Z,20.79
2022-08-03T01:18:59.822Z,20.86
2022-08-03T01:20:00.112Z,20.88
2022-08-03T01:21:00.582Z,20.80
2022-08-03T01:22:00.680Z,20.71
2022-08-03T01:23:00.635Z,20.68
2022-08-03T01:23:59.821Z,20.65
2022-08-03T01:25:00.125Z,20.63
2022-08-03T01:25:59.770Z,20.55
2022-08-03T01:26:59.800Z,20.52
2022-08-03T01:28:00.331Z,20.49
2022-08-03T01:28:59.757Z,20.50
2022-08-03T01:29:59.758Z,20.49
2022-08-03T01:30:59.767Z,20.49
2022-08-03T01:32:58.245Z,20.56
2022-08-03T01:33:02.254Z,20.53
2022-08-03T01:33:59.943Z,20.58
2022-08-03T01:34:59.812Z,20.64
2022-08-03T01:36:00.060Z,20.70
2022-08-03T01:37:00.550Z,20.71
2022-08-03T01:37:59.730Z,20.68
2022-08-03T01:39:00.568Z,20.67
2022-08-03T01:39:59.771Z,20.64
2022-08-03T01:40:59.700Z,20.61
2022-08-03T01:41:59.673Z,20.58
2022-08-03T01:42:59.879Z,20.56
2022-08-03T01:44:29.786Z,20.56
2022-08-03T01:44:59.978Z,20.55
2022-08-03T01:46:00.019Z,20.50
2022-08-03T01:46:59.628Z,20.50
2022-08-03T01:48:00.118Z,20.49
2022-08-03T01:49:00.263Z,20.44
2022-08-03T01:49:59.736Z,20.50
2022-08-03T01:51:00.228Z,20.44
2022-08-03T01:52:04.963Z,20.42
2022-08-03T01:52:59.629Z,20.42
2022-08-03T01:53:59.598Z,20.42
2022-08-03T01:54:59.702Z,20.37
2022-08-03T01:56:00.267Z,20.34
2022-08-03T01:56:59.596Z,20.30
2022-08-03T01:58:05.247Z,20.32
2022-08-03T01:58:59.639Z,20.34
2022-08-03T01:59:59.687Z,20.34
2022-08-03T02:00:59.643Z,20.34
2022-08-03T02:02:15.257Z,20.36
2022-08-03T02:02:59.540Z,20.32
2022-08-03T02:04:01.198Z,20.33
2022-08-03T02:04:59.616Z,20.27
2022-08-03T02:06:55.626Z,20.23
2022-08-03T02:07:02.593Z,20.23
2022-08-03T02:07:59.533Z,20.25
2022-08-03T02:08:59.507Z,20.26
2022-08-03T02:09:59.949Z,20.22
2022-08-03T02:10:59.467Z,20.25
2022-08-03T02:11:59.467Z,20.26
2022-08-03T02:12:59.785Z,20.25
2022-08-03T02:13:59.503Z,20.23
2022-08-03T02:15:00.057Z,20.19
2022-08-03T02:15:59.457Z,20.23
2022-08-03T02:16:59.433Z,20.12
2022-08-03T02:17:59.451Z,20.11
2022-08-03T02:18:59.564Z,20.07
2022-08-03T02:19:59.615Z,20.12
2022-08-03T02:20:59.407Z,20.15
2022-08-03T02:22:01.780Z,20.15
2022-08-03T02:22:59.467Z,20.15
2022-08-03T02:23:59.785Z,20.09
2022-08-03T02:24:59.395Z,20.04
2022-08-03T02:25:59.971Z,20.04
2022-08-03T02:26:59.378Z,20.05
2022-08-03T02:27:59.365Z,20.05
2022-08-03T02:28:59.576Z,20.02
2022-08-03T02:29:59.778Z,20.00
2022-08-03T02:30:59.337Z,19.96
2022-08-03T02:31:59.338Z,19.93
2022-08-03T02:32:59.928Z,19.90
2022-08-03T02:33:59.575Z,19.90
2022-08-03T02:34:59.309Z,19.93
2022-08-03T02:36:00.267Z,20.00
2022-08-03T02:36:59.297Z,20.02
2022-08-03T02:37:59.284Z,20.02
2022-08-03T02:38:59.325Z,20.08
2022-08-03T02:40:00.166Z,20.04
2022-08-03T02:40:59.684Z,20.05
2022-08-03T02:41:59.255Z,20.05
2022-08-03T02:42:59.253Z,20.04
2022-08-03T02:44:06.444Z,20.11
2022-08-03T02:45:00.070Z,20.17
2022-08-03T02:45:59.238Z,20.18
2022-08-03T02:46:59.224Z,20.19
2022-08-03T02:47:59.322Z,20.19
2022-08-03T02:48:59.342Z,20.18
2022-08-03T02:49:59.343Z,20.18
2022-08-03T02:50:59.701Z,20.25
2022-08-03T02:51:59.215Z,20.22
2022-08-03T02:52:59.449Z,20.22
2022-08-03T02:53:59.503Z,20.26
2022-08-03T02:54:59.188Z,20.29
2022-08-03T02:55:59.173Z,20.36
2022-08-03T02:56:59.173Z,20.34
2022-08-03T02:58:01.681Z,20.34
2022-08-03T02:58:59.353Z,20.30
2022-08-03T02:59:59.153Z,20.26
2022-08-03T03:00:59.196Z,20.23
2022-08-03T03:01:59.203Z,20.29
2022-08-03T03:02:59.631Z,20.30
2022-08-03T03:03:59.572Z,20.30
2022-08-03T03:05:54.712Z,20.36
2022-08-03T03:05:59.931Z,20.37
2022-08-03T03:06:59.101Z,20.36
2022-08-03T03:07:59.545Z,20.33
2022-08-03T03:08:59.892Z,20.32
2022-08-03T03:09:59.832Z,20.33
2022-08-03T03:10:59.692Z,20.33
2022-08-03T03:11:59.092Z,20.33
2022-08-03T03:12:59.173Z,20.32
2022-08-03T03:13:59.721Z,20.36
2022-08-03T03:14:59.069Z,20.33
2022-08-03T03:15:59.545Z,20.34
2022-08-03T03:16:59.198Z,20.25
2022-08-03T03:17:59.021Z,20.19
2022-08-03T03:18:59.151Z,20.18
2022-08-03T03:19:59.161Z,20.17
2022-08-03T03:20:59.001Z,20.22
2022-08-03T03:21:58.990Z,20.19
2022-08-03T03:22:59.006Z,20.26
2022-08-03T03:23:59.142Z,20.30
2022-08-03T03:24:59.090Z,20.34
2022-08-03T03:25:58.973Z,20.33
2022-08-03T03:26:58.960Z,20.32
2022-08-03T03:27:59.580Z,20.34
2022-08-03T03:28:59.782Z,20.33
2022-08-03T03:29:58.959Z,20.34
2022-08-03T03:30:58.987Z,20.33
2022-08-03T03:31:58.919Z,20.29
2022-08-03T03:32:58.919Z,20.30
2022-08-03T03:33:58.950Z,20.22
2022-08-03T03:34:59.000Z,20.17
2022-08-03T03:35:58.893Z,20.15
2022-08-03T03:36:58.939Z,20.17
2022-08-03T03:37:59.148Z,20.17
2022-08-03T03:38:59.167Z,20.15
2022-08-03T03:39:59.048Z,20.15
2022-08-03T03:40:58.859Z,20.11
2022-08-03T03:41:58.856Z,20.09
2022-08-03T03:42:58.849Z,20.05
2022-08-03T03:43:59.091Z,20.02
2022-08-03T03:44:59.128Z,19.93
2022-08-03T03:45:58.828Z,19.86
2022-08-03T03:46:58.860Z,19.84
2022-08-03T03:47:59.273Z,19.81
2022-08-03T03:48:58.983Z,19.82
2022-08-03T03:49:58.818Z,19.84
2022-08-03T03:50:58.789Z,19.75
2022-08-03T03:51:58.872Z,19.72
2022-08-03T03:52:59.489Z,19.75
2022-08-03T03:53:59.448Z,19.72
2022-08-03T03:55:01.016Z,19.75
2022-08-03T03:56:02.801Z,19.75
2022-08-03T03:56:58.760Z,19.81
2022-08-03T03:57:58.768Z,19.79
2022-08-03T03:59:00.706Z,19.89
2022-08-03T03:59:58.774Z,19.87
2022-08-03T04:00:58.791Z,19.84
2022-08-03T04:01:59.160Z,19.89
2022-08-03T04:02:58.795Z,19.93
2022-08-03T04:03:58.795Z,19.94
2022-08-03T04:04:58.819Z,19.96
2022-08-03T04:05:58.698Z,19.94
2022-08-03T04:06:59.587Z,19.93
2022-08-03T04:07:59.197Z,19.96
2022-08-03T04:08:58.827Z,19.96
2022-08-03T04:09:59.170Z,19.94
2022-08-03T04:10:58.666Z,19.99
2022-08-03T04:11:58.648Z,20.08
2022-08-03T04:12:58.657Z,20.14
2022-08-03T04:14:01.811Z,20.17
2022-08-03T04:14:58.653Z,20.18
2022-08-03T04:15:58.628Z,20.19
2022-08-03T04:16:58.618Z,20.29
2022-08-03T04:17:58.947Z,20.36
2022-08-03T04:18:59.596Z,20.44
2022-08-03T04:19:58.666Z,20.44
2022-08-03T04:20:59.087Z,20.42
2022-08-03T04:21:58.589Z,20.48
2022-08-03T04:22:58.576Z,20.55
2022-08-03T04:23:59.336Z,20.60
2022-08-03T04:24:59.388Z,20.55
2022-08-03T04:25:58.714Z,20.55
2022-08-03T04:26:58.545Z,20.55
2022-08-03T04:28:29.873Z,20.53
2022-08-03T04:28:58.555Z,20.49
2022-08-03T04:29:58.554Z,20.46
2022-08-03T04:30:58.605Z,20.49
2022-08-03T04:31:58.566Z,20.48
2022-08-03T04:32:58.656Z,20.44
2022-08-03T04:33:58.955Z,20.49
2022-08-03T04:34:58.715Z,20.44
2022-08-03T04:36:02.517Z,20.46
2022-08-03T04:36:58.558Z,20.44
2022-08-03T04:37:58.864Z,20.44
2022-08-03T04:38:58.905Z,20.46
2022-08-03T04:39:58.465Z,20.52
2022-08-03T04:40:58.466Z,20.50
2022-08-03T04:42:08.243Z,20.49
2022-08-03T04:42:58.533Z,20.55
2022-08-03T04:43:58.453Z,20.58
2022-08-03T04:45:01.300Z,20.58
2022-08-03T04:45:58.464Z,20.48
2022-08-03T04:46:58.424Z,20.44
2022-08-03T04:47:58.475Z,20.50
2022-08-03T04:48:58.466Z,20.53
2022-08-03T04:49:58.586Z,20.58
2022-08-03T04:50:58.443Z,20.65
2022-08-03T04:51:58.684Z,20.67
2022-08-03T04:52:58.723Z,20.70
2022-08-03T04:53:58.776Z,20.70
2022-08-03T04:54:58.825Z,20.79
2022-08-03T04:55:58.398Z,20.88
2022-08-03T04:56:58.852Z,20.86
2022-08-03T04:57:58.976Z,20.85
2022-08-03T04:58:58.334Z,20.90
2022-08-03T05:00:02.974Z,20.98
2022-08-03T05:00:58.384Z,21.03
2022-08-03T05:01:58.880Z,21.04
2022-08-03T05:02:58.365Z,21.04
2022-08-03T05:03:58.338Z,21.01
2022-08-03T05:04:58.305Z,21.08
2022-08-03T05:06:01.916Z,21.08
2022-08-03T05:06:58.765Z,21.13
2022-08-03T05:07:58.720Z,21.14
2022-08-03T05:08:58.273Z,21.16
2022-08-03T05:10:03.011Z,21.18
2022-08-03T05:10:59.405Z,21.18
2022-08-03T05:11:58.292Z,21.20
2022-08-03T05:12:58.254Z,21.26
2022-08-03T05:13:58.741Z,21.25
2022-08-03T05:14:58.961Z,21.32
2022-08-03T05:15:58.250Z,21.32
2022-08-03T05:16:58.222Z,21.34
2022-08-03T05:17:58.764Z,21.44
2022-08-03T05:18:58.451Z,21.55
2022-08-03T05:19:58.722Z,21.66
2022-08-03T05:20:58.388Z,21.77
2022-08-03T05:21:58.191Z,21.84
2022-08-03T05:22:58.324Z,22.01
2022-08-03T05:23:58.205Z,22.04
2022-08-03T05:24:58.223Z,22.12
2022-08-03T05:25:58.182Z,22.23
2022-08-03T05:26:58.470Z,22.21
2022-08-03T05:27:58.141Z,22.28
2022-08-03T05:28:58.133Z,22.38
2022-08-03T05:30:30.700Z,22.48
2022-08-03T05:30:58.123Z,22.44
2022-08-03T05:31:58.141Z,22.48
2022-08-03T05:32:58.152Z,22.55
2022-08-03T05:33:58.122Z,22.61
2022-08-03T05:34:58.196Z,22.64
2022-08-03T05:36:03.359Z,22.70
2022-08-03T05:36:58.842Z,22.74
2022-08-03T05:37:58.106Z,22.76
2022-08-03T05:39:02.505Z,22.81
2022-08-03T05:39:58.072Z,22.81
2022-08-03T05:41:20.103Z,22.81
2022-08-03T05:41:58.292Z,22.91
2022-08-03T05:42:58.140Z,23.01
2022-08-03T05:43:58.036Z,23.06
2022-08-03T05:44:58.039Z,23.11
2022-08-03T05:46:11.540Z,23.15
2022-08-03T05:46:58.033Z,23.21
2022-08-03T05:47:58.011Z,23.29
2022-08-03T05:48:58.050Z,23.36
2022-08-03T05:49:58.001Z,23.42
2022-08-03T05:50:57.991Z,23.48
2022-08-03T05:52:00.446Z,23.55
2022-08-03T05:52:57.979Z,23.59
2022-08-03T05:53:57.983Z,23.64
2022-08-03T05:54:57.972Z,23.66
2022-08-03T05:56:03.435Z,23.74
2022-08-03T05:56:58.020Z,23.73
2022-08-03T05:57:57.951Z,23.85
2022-08-03T05:58:57.941Z,23.86
2022-08-03T05:59:58.794Z,23.91
2022-08-03T06:00:58.034Z,23.94
2022-08-03T06:01:58.085Z,24.00
2022-08-03T06:02:57.993Z,24.03
2022-08-03T06:03:57.921Z,24.08
2022-08-03T06:04:57.896Z,24.07
2022-08-03T06:06:00.017Z,24.13
2022-08-03T06:06:58.570Z,24.25
2022-08-03T06:07:58.027Z,24.28
2022-08-03T06:08:57.993Z,24.31
2022-08-03T06:10:36.190Z,24.34
2022-08-03T06:10:57.869Z,24.37
2022-08-03T06:11:57.877Z,24.31
2022-08-03T06:12:57.862Z,24.34
2022-08-03T06:13:57.856Z,24.45
2022-08-03T06:14:57.872Z,24.60
2022-08-03T06:15:57.832Z,24.59
2022-08-03T06:16:57.835Z,24.66
2022-08-03T06:18:01.704Z,24.74
2022-08-03T06:18:57.917Z,24.81
2022-08-03T06:19:57.804Z,24.94
2022-08-03T06:20:57.796Z,25.01
2022-08-03T06:21:57.801Z,25.11
2022-08-03T06:23:01.212Z,25.26
2022-08-03T06:23:58.037Z,25.38
2022-08-03T06:24:58.040Z,25.41
2022-08-03T06:25:58.032Z,25.43
2022-08-03T06:26:57.751Z,25.52
2022-08-03T06:27:57.743Z,25.58
2022-08-03T06:28:57.910Z,25.63
2022-08-03T06:29:57.740Z,25.58
2022-08-03T06:30:57.724Z,25.64
2022-08-03T06:31:58.041Z,25.61
2022-08-03T06:32:57.721Z,25.68
2022-08-03T06:34:34.055Z,25.75
2022-08-03T06:34:57.711Z,25.74
2022-08-03T06:35:57.762Z,25.73
2022-08-03T06:37:01.964Z,25.74
2022-08-03T06:37:57.760Z,25.74
2022-08-03T06:38:57.971Z,25.75
2022-08-03T06:39:58.000Z,25.82
2022-08-03T06:40:57.661Z,25.88
2022-08-03T06:41:57.681Z,25.93
2022-08-03T06:42:57.685Z,26.03
2022-08-03T06:44:03.216Z,26.07
2022-08-03T06:44:57.651Z,26.11
2022-08-03T06:45:57.630Z,26.03
2022-08-03T06:46:57.820Z,26.05
2022-08-03T06:47:57.611Z,26.10
2022-08-03T06:48:57.682Z,26.08
2022-08-03T06:50:12.865Z,26.10
2022-08-03T06:50:57.611Z,26.04
2022-08-03T06:52:03.226Z,26.12
2022-08-03T06:52:57.594Z,26.21
2022-08-03T06:53:57.597Z,26.24
2022-08-03T06:54:57.916Z,26.28
2022-08-03T06:55:57.561Z,26.33
2022-08-03T06:56:57.603Z,26.43
2022-08-03T06:57:59.923Z,26.53
2022-08-03T06:58:57.541Z,26.64
2022-08-03T07:00:08.342Z,26.75
2022-08-03T07:00:57.562Z,26.82
2022-08-03T07:01:57.732Z,26.79
2022-08-03T07:02:58.376Z,26.80
2022-08-03T07:03:57.933Z,26.89
2022-08-03T07:04:57.491Z,27.00
2022-08-03T07:05:57.500Z,27.01
2022-08-03T07:06:57.492Z,27.01
2022-08-03T07:07:57.579Z,26.97
2022-08-03T07:08:59.524Z,26.93
2022-08-03T07:09:58.263Z,26.88
2022-08-03T07:10:57.495Z,26.93
2022-08-03T07:11:57.537Z,26.90
2022-08-03T07:12:57.451Z,27.03
2022-08-03T07:13:57.440Z,27.00
2022-08-03T07:15:00.853Z,26.95
2022-08-03T07:15:57.440Z,26.89
2022-08-03T07:16:57.772Z,26.98
2022-08-03T07:17:57.444Z,27.05
2022-08-03T07:18:57.400Z,27.10
2022-08-03T07:19:57.402Z,27.08
2022-08-03T07:20:57.438Z,27.15
2022-08-03T07:22:02.297Z,27.15
2022-08-03T07:22:57.470Z,27.16
2022-08-03T07:23:57.391Z,27.22
2022-08-03T07:24:57.370Z,27.25
2022-08-03T07:25:57.362Z,27.31
2022-08-03T07:26:57.390Z,27.38
2022-08-03T07:27:57.461Z,27.38
2022-08-03T07:28:57.344Z,27.44
2022-08-03T07:29:57.339Z,27.47
2022-08-03T07:30:57.321Z,27.37
2022-08-03T07:31:57.325Z,27.34
2022-08-03T07:32:57.928Z,27.40
2022-08-03T07:33:57.321Z,27.44
2022-08-03T07:35:00.880Z,27.52
2022-08-03T07:35:57.290Z,27.54
2022-08-03T07:36:57.284Z,27.57
2022-08-03T07:37:58.070Z,27.58
2022-08-03T07:38:57.550Z,27.72
2022-08-03T07:39:57.280Z,27.87
2022-08-03T07:40:57.261Z,28.05
2022-08-03T07:41:57.258Z,28.06
2022-08-03T07:42:57.331Z,28.20
2022-08-03T07:43:57.701Z,28.25
2022-08-03T07:44:57.872Z,28.28
2022-08-03T07:45:57.600Z,28.20
2022-08-03T07:46:57.231Z,28.25
2022-08-03T07:47:57.231Z,28.27
2022-08-03T07:48:57.269Z,28.27
2022-08-03T07:49:57.220Z,28.34
2022-08-03T07:50:57.198Z,28.43
2022-08-03T07:51:57.190Z,28.52
2022-08-03T07:52:57.411Z,28.52
2022-08-03T07:53:57.483Z,28.53
2022-08-03T07:54:57.160Z,28.56
2022-08-03T07:55:57.163Z,28.62
2022-08-03T07:56:57.160Z,28.62
2022-08-03T07:57:57.160Z,28.65
2022-08-03T07:58:57.696Z,28.71
2022-08-03T08:00:01.992Z,28.87
2022-08-03T08:00:57.177Z,29.02
2022-08-03T08:01:57.121Z,29.06
2022-08-03T08:02:57.143Z,28.96
2022-08-03T08:03:57.283Z,29.13
2022-08-03T08:04:58.423Z,29.31
2022-08-03T08:05:57.251Z,29.15
2022-08-03T08:06:57.451Z,29.07
2022-08-03T08:07:57.122Z,28.94
2022-08-03T08:08:57.080Z,29.02
2022-08-03T08:09:57.592Z,28.94
2022-08-03T08:10:58.467Z,29.09
2022-08-03T08:11:57.050Z,29.17
2022-08-03T08:12:57.078Z,29.19
2022-08-03T08:13:57.041Z,29.37
2022-08-03T08:14:57.060Z,29.46
2022-08-03T08:15:57.916Z,29.52
2022-08-03T08:16:57.090Z,29.49
2022-08-03T08:17:57.051Z,29.49
2022-08-03T08:18:57.022Z,29.54
2022-08-03T08:19:57.037Z,29.43
2022-08-03T08:20:57.300Z,29.39
2022-08-03T08:22:02.561Z,29.52
2022-08-03T08:22:57.020Z,29.43
2022-08-03T08:23:57.889Z,29.54
2022-08-03T08:24:56.974Z,29.49
2022-08-03T08:25:56.960Z,29.52
2022-08-03T08:26:56.998Z,29.59
2022-08-03T08:28:30.710Z,29.47
2022-08-03T08:28:56.951Z,29.27
2022-08-03T08:30:02.506Z,29.17
2022-08-03T08:30:56.980Z,29.25
2022-08-03T08:31:56.920Z,29.25
2022-08-03T08:32:56.939Z,29.21
2022-08-03T08:34:04.934Z,29.27
2022-08-03T08:34:57.349Z,29.40
2022-08-03T08:35:56.900Z,29.61
2022-08-03T08:36:56.894Z,29.71
2022-08-03T08:37:56.920Z,29.66
2022-08-03T08:38:56.882Z,29.78
2022-08-03T08:39:56.871Z,29.83
2022-08-03T08:40:57.642Z,29.87
2022-08-03T08:41:56.861Z,29.71
2022-08-03T08:42:58.935Z,29.70
2022-08-03T08:43:59.963Z,29.70
2022-08-03T08:44:56.850Z,29.74
2022-08-03T08:45:57.181Z,29.68
2022-08-03T08:46:56.830Z,29.65
2022-08-03T08:48:00.853Z,29.74
2022-08-03T08:48:56.852Z,29.83
2022-08-03T08:50:09.242Z,29.73
2022-08-03T08:50:56.992Z,29.77
2022-08-03T08:52:00.429Z,29.74
2022-08-03T08:52:56.824Z,29.87
2022-08-03T08:53:56.801Z,29.80
2022-08-03T08:54:56.881Z,29.78
2022-08-03T08:56:00.008Z,29.92
2022-08-03T08:56:56.771Z,29.93
2022-08-03T08:57:56.762Z,30.10
2022-08-03T08:58:56.766Z,30.29
2022-08-03T08:59:57.458Z,30.18
2022-08-03T09:00:57.156Z,30.15
2022-08-03T09:01:57.032Z,30.00
2022-08-03T09:02:57.677Z,29.98
2022-08-03T09:03:56.744Z,30.00
2022-08-03T09:04:56.771Z,30.08
2022-08-03T09:05:56.728Z,30.21
2022-08-03T09:07:18.833Z,30.35
2022-08-03T09:07:56.705Z,30.48
2022-08-03T09:08:56.701Z,30.62
2022-08-03T09:10:10.162Z,30.71
2022-08-03T09:10:56.721Z,30.68
2022-08-03T09:12:13.726Z,30.53
2022-08-03T09:12:56.661Z,30.24
2022-08-03T09:13:56.672Z,30.15
2022-08-03T09:15:16.083Z,30.17
2022-08-03T09:16:00.907Z,30.28
2022-08-03T09:16:56.663Z,30.37
2022-08-03T09:17:56.631Z,30.40
2022-08-03T09:18:56.641Z,30.33
2022-08-03T09:20:02.869Z,30.39
2022-08-03T09:20:56.625Z,30.35
2022-08-03T09:21:56.632Z,30.56
2022-08-03T09:22:56.614Z,30.65
2022-08-03T09:24:02.739Z,30.46
2022-08-03T09:25:21.522Z,30.29
2022-08-03T09:25:56.571Z,30.00
2022-08-03T09:26:56.592Z,29.87
2022-08-03T09:27:56.802Z,29.73
2022-08-03T09:29:04.697Z,29.58
2022-08-03T09:29:56.693Z,29.56
2022-08-03T09:30:56.721Z,29.55
2022-08-03T09:31:56.542Z,29.46
2022-08-03T09:32:56.965Z,29.41
2022-08-03T09:33:56.782Z,29.52
2022-08-03T09:34:58.236Z,29.71
2022-08-03T09:35:57.856Z,29.92
2022-08-03T09:36:56.504Z,29.99
2022-08-03T09:38:13.418Z,29.89
2022-08-03T09:38:57.162Z,29.76
2022-08-03T09:39:57.339Z,29.74
2022-08-03T09:40:59.917Z,29.65
2022-08-03T09:41:56.514Z,29.52
2022-08-03T09:42:56.473Z,29.44
2022-08-03T09:43:56.542Z,29.44
2022-08-03T09:44:56.516Z,29.41
2022-08-03T09:45:56.502Z,29.40
2022-08-03T09:46:56.762Z,29.29
2022-08-03T09:47:56.432Z,29.29
2022-08-03T09:48:56.702Z,29.39
2022-08-03T09:49:56.733Z,29.33
2022-08-03T09:50:58.615Z,29.44
2022-08-03T09:52:32.567Z,29.68
2022-08-03T09:52:56.512Z,29.86
2022-08-03T09:53:59.535Z,29.95
2022-08-03T09:54:56.633Z,30.21
2022-08-03T09:56:33.753Z,30.55
2022-08-03T09:56:57.202Z,30.75
2022-08-03T09:57:56.383Z,30.97
2022-08-03T09:58:56.852Z,31.20
2022-08-03T10:00:04.416Z,31.15
2022-08-03T10:00:56.975Z,30.86
2022-08-03T10:01:57.325Z,30.97
2022-08-03T10:02:56.871Z,30.92
2022-08-03T10:04:04.190Z,30.89
2022-08-03T10:04:56.384Z,30.96
2022-08-03T10:05:59.792Z,30.83
2022-08-03T10:06:56.661Z,30.64
2022-08-03T10:07:56.303Z,30.30
2022-08-03T10:08:56.293Z,30.17
2022-08-03T10:09:56.322Z,30.18
2022-08-03T10:10:56.993Z,30.14
2022-08-03T10:11:56.325Z,30.15
2022-08-03T10:12:56.313Z,29.98
2022-08-03T10:14:01.088Z,29.87
2022-08-03T10:14:56.643Z,29.87
2022-08-03T10:16:21.711Z,30.02
2022-08-03T10:16:56.514Z,30.10
2022-08-03T10:17:56.256Z,30.30
2022-08-03T10:18:56.233Z,30.53
2022-08-03T10:19:56.369Z,30.88
2022-08-03T10:20:56.417Z,31.01
2022-08-03T10:21:56.216Z,30.78
2022-08-03T10:22:56.231Z,30.78
2022-08-03T10:23:56.223Z,30.95
2022-08-03T10:24:56.220Z,30.95
2022-08-03T10:25:56.193Z,31.04
2022-08-03T10:26:56.184Z,31.05
2022-08-03T10:27:56.185Z,31.05
2022-08-03T10:28:56.215Z,31.07
2022-08-03T10:29:56.223Z,30.89
2022-08-03T10:30:57.019Z,30.92
2022-08-03T10:31:58.373Z,31.02
2022-08-03T10:32:56.164Z,31.05
2022-08-03T10:33:56.134Z,30.99
2022-08-03T10:35:00.207Z,31.10
2022-08-03T10:35:56.192Z,31.19
2022-08-03T10:36:56.151Z,31.04
2022-08-03T10:37:57.014Z,31.02
2022-08-03T10:38:56.104Z,31.01
2022-08-03T10:39:56.346Z,30.99
2022-08-03T10:40:59.088Z,31.04
2022-08-03T10:41:56.083Z,31.19
2022-08-03T10:42:56.085Z,31.42
2022-08-03T10:43:56.103Z,31.71
2022-08-03T10:44:56.435Z,31.89
2022-08-03T10:45:56.245Z,32.02
2022-08-03T10:46:56.144Z,32.06
2022-08-03T10:47:56.045Z,32.06
2022-08-03T10:48:56.143Z,31.99
2022-08-03T10:49:56.080Z,32.01
2022-08-03T10:50:56.032Z,32.09
2022-08-03T10:51:56.385Z,32.06
2022-08-03T10:52:56.034Z,32.27
2022-08-03T10:53:56.181Z,32.79
2022-08-03T10:54:56.014Z,33.27
2022-08-03T10:55:56.005Z,33.79
2022-08-03T10:56:56.135Z,34.00
2022-08-03T10:57:58.314Z,34.06
2022-08-03T10:58:57.951Z,34.15
2022-08-03T10:59:55.994Z,34.18
2022-08-03T11:00:56.201Z,33.92
2022-08-03T11:01:59.945Z,33.86
2022-08-03T11:02:56.215Z,33.47
2022-08-03T11:03:55.943Z,33.54
2022-08-03T11:04:56.045Z,33.89
2022-08-03T11:05:55.934Z,34.04
2022-08-03T11:06:55.935Z,33.71
2022-08-03T11:07:55.925Z,33.57
2022-08-03T11:08:55.915Z,33.51
2022-08-03T11:09:56.007Z,33.60
2022-08-03T11:10:55.925Z,33.67
2022-08-03T11:11:55.904Z,34.10
2022-08-03T11:12:56.937Z,33.79
2022-08-03T11:13:55.926Z,34.25
2022-08-03T11:14:55.935Z,34.63
2022-08-03T11:16:02.250Z,34.35
2022-08-03T11:16:56.084Z,33.92
2022-08-03T11:17:56.736Z,33.67
2022-08-03T11:18:55.885Z,33.44
2022-08-03T11:19:57.357Z,33.35
2022-08-03T11:20:55.904Z,33.39
2022-08-03T11:21:56.305Z,33.45
2022-08-03T11:22:55.846Z,33.51
2022-08-03T11:24:05.421Z,34.32
2022-08-03T11:24:55.845Z,35.09
2022-08-03T11:25:55.877Z,35.32
2022-08-03T11:26:55.838Z,35.36
2022-08-03T11:27:56.526Z,35.35
2022-08-03T11:28:55.806Z,35.01
2022-08-03T11:29:55.875Z,34.04
2022-08-03T11:30:55.819Z,33.30
2022-08-03T11:31:55.831Z,33.45
2022-08-03T11:32:55.838Z,33.52
2022-08-03T11:33:55.896Z,33.57
2022-08-03T11:34:55.786Z,33.67
2022-08-03T11:35:55.787Z,33.54
2022-08-03T11:36:55.785Z,33.44
2022-08-03T11:38:03.517Z,33.60
2022-08-03T11:38:56.137Z,33.60
2022-08-03T11:39:55.783Z,33.54
2022-08-03T11:40:55.796Z,33.20
2022-08-03T11:41:55.736Z,33.04
2022-08-03T11:42:55.737Z,33.06
2022-08-03T11:43:55.726Z,33.17
2022-08-03T11:44:55.728Z,33.26
2022-08-03T11:45:55.726Z,33.76
2022-08-03T11:46:56.549Z,34.06
2022-08-03T11:47:55.739Z,34.41
2022-08-03T11:48:55.793Z,35.19
2022-08-03T11:49:55.726Z,34.85
2022-08-03T11:50:56.382Z,34.78
2022-08-03T11:51:55.689Z,34.57
2022-08-03T11:52:55.733Z,34.40
2022-08-03T11:53:55.681Z,34.03
2022-08-03T11:54:56.775Z,33.64
2022-08-03T11:55:56.658Z,33.60
2022-08-03T11:56:55.771Z,33.91
2022-08-03T11:59:01.335Z,34.95
2022-08-03T11:59:19.012Z,34.41
2022-08-03T11:59:56.087Z,35.09
2022-08-03T12:00:55.648Z,35.17
2022-08-03T12:01:55.627Z,35.46
2022-08-03T12:02:55.669Z,36.03
2022-08-03T12:03:56.037Z,35.54
2022-08-03T12:04:55.678Z,35.13
2022-08-03T12:05:55.646Z,35.44
2022-08-03T12:06:55.638Z,35.76
2022-08-03T12:08:03.714Z,35.66
2022-08-03T12:08:56.076Z,34.92
2022-08-03T12:09:55.665Z,34.82
2022-08-03T12:10:55.708Z,34.63
2022-08-03T12:12:00.757Z,34.15
2022-08-03T12:12:55.579Z,33.91
2022-08-03T12:14:36.707Z,33.20
2022-08-03T12:14:55.557Z,32.91
2022-08-03T12:15:55.576Z,33.42
2022-08-03T12:16:55.546Z,34.30
2022-08-03T12:17:57.851Z,34.91
2022-08-03T12:18:55.549Z,34.95
2022-08-03T12:19:55.537Z,35.07
2022-08-03T12:20:55.559Z,35.09
2022-08-03T12:21:57.298Z,35.32
2022-08-03T12:22:55.528Z,35.92
2022-08-03T12:23:55.513Z,36.09
2022-08-03T12:24:55.508Z,35.97
2022-08-03T12:25:55.607Z,35.50
2022-08-03T12:26:59.368Z,35.88
2022-08-03T12:27:55.599Z,35.91
2022-08-03T12:28:55.490Z,35.72
2022-08-03T12:29:57.233Z,35.58
2022-08-03T12:30:55.567Z,35.20
2022-08-03T12:31:55.961Z,35.01
2022-08-03T12:32:56.881Z,34.73
2022-08-03T12:33:55.486Z,33.97
2022-08-03T12:34:55.470Z,33.32
2022-08-03T12:35:55.482Z,33.26
2022-08-03T12:36:55.486Z,33.51
2022-08-03T12:37:55.758Z,33.66
2022-08-03T12:38:55.594Z,34.03
2022-08-03T12:40:02.620Z,33.67
2022-08-03T12:40:55.438Z,33.30
2022-08-03T12:41:55.467Z,33.37
2022-08-03T12:42:55.469Z,33.71
2022-08-03T12:43:55.405Z,33.98
2022-08-03T12:44:56.433Z,33.74
2022-08-03T12:45:55.408Z,33.95
2022-08-03T12:46:55.388Z,34.07
2022-08-03T12:47:55.623Z,33.89
2022-08-03T12:48:55.457Z,34.04
2022-08-03T12:49:55.388Z,34.19
2022-08-03T12:50:55.377Z,34.07
2022-08-03T12:51:55.807Z,33.95